Aviation Digital Data Service (ADDS)

Output produced by METARs form (1413 UTC 31 October 2014)
found at http://aviationweather.gov/adds/metars/
 
KACK 311129Z 3112/0112 05004KT P6SM BKN050 
     FM311300 06007KT P6SM BKN060 
     FM311600 06012KT P6SM BKN050 
     FM010500 05016KT P6SM -RA OVC025 
     FM010900 04017G25KT 3SM -RA BR OVC050